createdAt,value
2018-02-18T00:00:09.743Z,17.35
2018-02-18T00:02:37.204Z,18.42
2018-02-18T00:05:04.766Z,18.55
2018-02-18T00:07:32.364Z,17.33
2018-02-18T00:09:59.823Z,17.92
2018-02-18T00:12:27.341Z,20.58
2018-02-18T00:14:56.582Z,18.40
2018-02-18T00:17:26.043Z,19.08
2018-02-18T00:19:53.485Z,17.90
2018-02-18T00:22:20.951Z,19.05
2018-02-18T00:24:49.017Z,18.12
2018-02-18T00:27:16.483Z,18.00
2018-02-18T00:29:43.941Z,18.58
2018-02-18T00:32:11.452Z,18.35
2018-02-18T00:34:38.906Z,19.52
2018-02-18T00:37:06.396Z,18.90
2018-02-18T00:39:33.842Z,18.65
2018-02-18T00:42:01.307Z,18.55
2018-02-18T00:44:28.782Z,19.05
2018-02-18T00:46:56.391Z,19.30
2018-02-18T00:49:23.874Z,18.30
2018-02-18T00:51:51.314Z,19.73
2018-02-18T00:54:18.767Z,17.85
2018-02-18T00:56:46.947Z,17.83
2018-02-18T00:59:14.495Z,19.55
2018-02-18T01:01:41.974Z,19.23
2018-02-18T01:04:09.432Z,16.15
2018-02-18T01:06:36.917Z,17.70
2018-02-18T01:09:04.398Z,19.30
2018-02-18T01:11:31.847Z,18.77
2018-02-18T01:13:59.303Z,20.55
2018-02-18T01:16:26.741Z,18.73
2018-02-18T01:18:54.977Z,17.87
2018-02-18T01:21:22.437Z,20.05
2018-02-18T01:23:49.905Z,19.77
2018-02-18T01:26:17.344Z,19.73
2018-02-18T01:28:44.820Z,18.00
2018-02-18T01:31:12.279Z,18.17
2018-02-18T01:33:39.696Z,19.73
2018-02-18T01:36:07.175Z,19.67
2018-02-18T01:38:34.639Z,19.08
2018-02-18T01:41:03.065Z,18.12
2018-02-18T01:43:30.520Z,19.35
2018-02-18T01:45:58.055Z,18.10
2018-02-18T01:48:25.499Z,17.55
2018-02-18T01:50:53.034Z,20.20
2018-02-18T01:53:20.505Z,18.30
2018-02-18T01:55:47.981Z,17.95
2018-02-18T01:58:15.410Z,19.98
2018-02-18T02:00:42.887Z,20.30
2018-02-18T02:03:10.394Z,20.10
2018-02-18T02:05:37.860Z,19.50
2018-02-18T02:08:05.303Z,18.10
2018-02-18T02:10:33.364Z,19.42
2018-02-18T02:13:00.839Z,20.37
2018-02-18T02:15:28.352Z,19.50
2018-02-18T02:17:55.804Z,19.40
2018-02-18T02:20:23.329Z,20.05
2018-02-18T02:22:50.797Z,18.90
2018-02-18T02:25:18.241Z,19.62
2018-02-18T02:27:46.397Z,20.27
2018-02-18T02:30:20.289Z,20.30
2018-02-18T02:32:47.747Z,18.62
2018-02-18T02:35:15.186Z,19.52
2018-02-18T02:37:42.674Z,20.35
2018-02-18T02:40:10.178Z,20.00
2018-02-18T02:42:37.643Z,20.20
2018-02-18T02:45:05.097Z,19.27
2018-02-18T02:47:33.323Z,20.48
2018-02-18T02:50:01.557Z,20.45
2018-02-18T02:52:29.055Z,20.17
2018-02-18T02:54:56.530Z,17.50
2018-02-18T02:57:23.979Z,18.65
2018-02-18T02:59:51.435Z,18.15
2018-02-18T03:02:18.926Z,21.15
2018-02-18T03:04:46.363Z,19.35
2018-02-18T03:07:13.839Z,20.30
2018-02-18T03:09:42.087Z,18.40
2018-02-18T03:12:10.261Z,18.52
2018-02-18T03:14:37.749Z,19.65
2018-02-18T03:17:05.994Z,19.27
2018-02-18T03:19:33.449Z,18.87
2018-02-18T03:22:00.975Z,19.00
2018-02-18T03:24:28.431Z,19.95
2018-02-18T03:26:55.887Z,20.08
2018-02-18T03:29:23.400Z,19.77
2018-02-18T03:31:51.674Z,19.70
2018-02-18T03:34:19.891Z,19.92
2018-02-18T03:36:47.349Z,19.02
2018-02-18T03:39:14.828Z,19.80
2018-02-18T03:41:42.324Z,19.92
2018-02-18T03:44:09.720Z,19.73
2018-02-18T03:46:37.200Z,21.08
2018-02-18T03:49:08.135Z,19.83
2018-02-18T03:51:35.588Z,19.33
2018-02-18T03:54:03.028Z,22.40
2018-02-18T03:56:30.501Z,21.30
2018-02-18T03:58:57.941Z,20.80
2018-02-18T04:01:26.220Z,21.85
2018-02-18T04:03:53.680Z,19.15
2018-02-18T04:06:21.236Z,20.40
2018-02-18T04:08:48.707Z,21.65
2018-02-18T04:11:16.176Z,20.70
2018-02-18T04:13:43.648Z,19.95
2018-02-18T04:16:11.896Z,21.30
2018-02-18T04:18:39.351Z,21.77
2018-02-18T04:21:06.827Z,21.50
2018-02-18T04:23:35.087Z,21.02
2018-02-18T04:26:02.536Z,21.87
2018-02-18T04:28:29.996Z,20.17
2018-02-18T04:30:58.114Z,18.87
2018-02-18T04:33:25.576Z,20.12
2018-02-18T04:35:53.021Z,21.33
2018-02-18T04:38:20.512Z,21.65
2018-02-18T04:40:47.983Z,22.37
2018-02-18T04:43:15.454Z,20.55
2018-02-18T04:45:42.904Z,21.55
2018-02-18T04:48:10.384Z,21.20
2018-02-18T04:50:37.845Z,19.55
2018-02-18T04:53:05.313Z,20.50
2018-02-18T04:55:32.755Z,21.70
2018-02-18T04:58:00.962Z,20.77
2018-02-18T05:00:28.418Z,21.75
2018-02-18T05:02:55.875Z,23.05
2018-02-18T05:05:23.328Z,21.65
2018-02-18T05:07:50.785Z,22.50
2018-02-18T05:10:18.265Z,20.62
2018-02-18T05:12:45.738Z,22.30
2018-02-18T05:15:13.200Z,20.65
2018-02-18T05:17:40.677Z,22.10
2018-02-18T05:20:08.899Z,21.55
2018-02-18T05:22:36.391Z,21.42
2018-02-18T05:25:03.886Z,21.83
2018-02-18T05:27:31.329Z,21.05
2018-02-18T05:29:59.579Z,21.00
2018-02-18T05:32:27.056Z,21.65
2018-02-18T05:34:55.299Z,21.83
2018-02-18T05:37:24.354Z,21.60
2018-02-18T05:39:51.817Z,21.67
2018-02-18T05:42:19.314Z,20.23
2018-02-18T05:44:46.774Z,20.90
2018-02-18T05:47:18.594Z,21.92
2018-02-18T05:49:46.827Z,21.27
2018-02-18T05:52:15.078Z,21.95
2018-02-18T05:54:42.567Z,22.95
2018-02-18T05:57:10.079Z,22.83
2018-02-18T05:59:37.520Z,23.20
2018-02-18T06:02:05.012Z,21.05
2018-02-18T06:04:32.447Z,23.38
2018-02-18T06:06:59.976Z,24.55
2018-02-18T06:09:27.406Z,23.83
2018-02-18T06:11:54.892Z,22.75
2018-02-18T06:14:22.989Z,23.38
2018-02-18T06:16:50.475Z,22.25
2018-02-18T06:19:17.933Z,22.50
2018-02-18T06:21:46.207Z,23.02
2018-02-18T06:24:14.434Z,21.58
2018-02-18T06:26:41.912Z,23.95
2018-02-18T06:29:09.398Z,22.95
2018-02-18T06:31:36.861Z,23.75
2018-02-18T06:34:04.360Z,22.87
2018-02-18T06:36:31.804Z,22.42
2018-02-18T06:38:59.264Z,20.23
2018-02-18T06:41:26.707Z,22.30
2018-02-18T06:43:54.187Z,23.87
2018-02-18T06:46:21.647Z,22.87
2018-02-18T06:48:49.119Z,23.58
2018-02-18T06:51:16.607Z,25.37
2018-02-18T06:53:44.846Z,24.83
2018-02-18T06:56:12.289Z,23.05
2018-02-18T06:58:39.782Z,25.23
2018-02-18T07:01:08.010Z,23.90
2018-02-18T07:03:40.961Z,23.62
2018-02-18T07:06:08.411Z,23.95
2018-02-18T07:08:35.878Z,27.48
2018-02-18T07:11:03.344Z,27.35
2018-02-18T07:13:30.912Z,23.95
2018-02-18T07:15:58.382Z,24.33
2018-02-18T07:18:26.612Z,26.77
2018-02-18T07:20:54.073Z,23.70
2018-02-18T07:23:21.527Z,23.00
2018-02-18T07:25:49.016Z,23.87
2018-02-18T07:28:16.474Z,23.80
2018-02-18T07:30:43.932Z,23.00
2018-02-18T07:33:11.381Z,23.77
2018-02-18T07:35:39.478Z,23.80
2018-02-18T07:38:06.938Z,22.85
2018-02-18T07:40:34.388Z,25.17
2018-02-18T07:43:01.889Z,24.10
2018-02-18T07:45:29.318Z,23.08
2018-02-18T07:47:56.768Z,22.37
2018-02-18T07:50:24.218Z,23.00
2018-02-18T07:52:51.699Z,22.87
2018-02-18T07:55:19.935Z,22.67
2018-02-18T07:57:47.414Z,23.67
2018-02-18T08:00:14.911Z,23.77
2018-02-18T08:02:42.431Z,23.12
2018-02-18T08:05:10.583Z,24.20
2018-02-18T08:07:38.065Z,24.60
2018-02-18T08:10:06.335Z,21.70
2018-02-18T08:12:33.877Z,23.30
2018-02-18T08:15:01.840Z,22.67
2018-02-18T08:17:29.372Z,22.52
2018-02-18T08:20:01.402Z,21.98
2018-02-18T08:22:29.662Z,22.35
2018-02-18T08:24:57.119Z,24.15
2018-02-18T08:27:25.805Z,23.23
2018-02-18T08:29:54.044Z,21.75
2018-02-18T08:32:21.520Z,23.62
2018-02-18T08:34:48.974Z,22.83
2018-02-18T08:37:16.436Z,24.02
2018-02-18T08:39:43.916Z,24.23
2018-02-18T08:42:12.745Z,24.12
2018-02-18T08:44:40.364Z,25.05
2018-02-18T08:47:07.818Z,23.60
2018-02-18T08:49:36.029Z,22.33
2018-02-18T08:52:03.501Z,24.40
2018-02-18T08:54:30.990Z,25.27
2018-02-18T08:56:58.444Z,22.87
2018-02-18T08:59:25.904Z,26.20
2018-02-18T09:01:53.368Z,26.10
2018-02-18T09:04:20.835Z,26.75
2018-02-18T09:06:49.080Z,24.20
2018-02-18T09:09:16.539Z,22.77
2018-02-18T09:11:44.033Z,24.02
2018-02-18T09:14:11.615Z,24.05
2018-02-18T09:16:39.104Z,22.58
2018-02-18T09:19:06.526Z,23.62
2018-02-18T09:21:34.008Z,24.08
2018-02-18T09:24:01.462Z,23.80
2018-02-18T09:26:28.948Z,24.37
2018-02-18T09:28:57.628Z,22.90
2018-02-18T09:31:25.092Z,23.58
2018-02-18T09:33:52.612Z,23.30
2018-02-18T09:36:20.069Z,23.60
2018-02-18T09:38:47.553Z,23.48
2018-02-18T09:41:15.772Z,25.35
2018-02-18T09:43:43.244Z,25.42
2018-02-18T09:46:10.694Z,24.67
2018-02-18T09:48:38.175Z,25.75
2018-02-18T09:51:05.633Z,25.17
2018-02-18T09:53:33.114Z,24.12
2018-02-18T09:56:01.328Z,23.03
2018-02-18T09:58:28.838Z,23.60
2018-02-18T10:00:56.283Z,24.40
2018-02-18T10:03:23.753Z,25.27
2018-02-18T10:05:52.039Z,24.77
2018-02-18T10:08:19.515Z,23.73
2018-02-18T10:10:46.980Z,22.70
2018-02-18T10:13:14.446Z,22.50
2018-02-18T10:15:41.898Z,24.73
2018-02-18T10:18:09.456Z,24.23
2018-02-18T10:20:36.931Z,24.10
2018-02-18T10:23:04.376Z,24.73
2018-02-18T10:25:31.867Z,25.10
2018-02-18T10:27:59.325Z,27.50
2018-02-18T10:30:26.810Z,23.50
2018-02-18T10:32:54.243Z,25.07
2018-02-18T10:35:22.489Z,24.03
2018-02-18T10:37:49.936Z,23.10
2018-02-18T10:40:18.171Z,25.27
2018-02-18T10:42:45.641Z,22.27
2018-02-18T10:45:13.247Z,25.70
2018-02-18T10:47:40.727Z,26.67
2018-02-18T10:50:09.047Z,23.50
2018-02-18T10:52:36.520Z,22.97
2018-02-18T10:55:03.969Z,23.23
2018-02-18T10:57:31.452Z,24.63
2018-02-18T10:59:58.911Z,24.87
2018-02-18T11:02:26.445Z,25.12
2018-02-18T11:04:54.696Z,22.80
2018-02-18T11:07:22.931Z,21.87
2018-02-18T11:09:51.194Z,21.90
2018-02-18T11:12:18.761Z,21.92
2018-02-18T11:14:46.223Z,22.67
2018-02-18T11:17:13.715Z,25.03
2018-02-18T11:19:41.196Z,24.17
2018-02-18T11:22:08.687Z,24.40
2018-02-18T11:24:36.149Z,22.83
2018-02-18T11:27:03.618Z,24.17
2018-02-18T11:29:31.101Z,23.27
2018-02-18T11:31:58.569Z,24.60
2018-02-18T11:34:26.058Z,24.67
2018-02-18T11:36:53.516Z,24.17
2018-02-18T11:39:21.080Z,26.17
2018-02-18T11:41:48.554Z,23.98
2018-02-18T11:44:16.020Z,23.15
2018-02-18T11:46:44.204Z,23.87
2018-02-18T11:49:12.549Z,23.42
2018-02-18T11:51:40.011Z,23.25
2018-02-18T11:54:07.540Z,22.45
2018-02-18T11:56:35.002Z,22.83
2018-02-18T11:59:02.533Z,22.65
2018-02-18T12:01:30.089Z,21.25
2018-02-18T12:03:57.625Z,22.42
2018-02-18T12:06:25.872Z,22.83
2018-02-18T12:08:53.469Z,23.38
2018-02-18T12:11:20.931Z,21.67
2018-02-18T12:13:48.384Z,22.52
2018-02-18T12:16:15.858Z,21.60
2018-02-18T12:18:43.330Z,22.73
2018-02-18T12:21:10.864Z,18.10
2018-02-18T12:23:38.338Z,16.17
2018-02-18T12:26:06.593Z,17.90
2018-02-18T12:28:34.435Z,17.05
2018-02-18T12:31:01.916Z,16.70
2018-02-18T12:33:29.431Z,16.80
2018-02-18T12:35:56.927Z,17.50
2018-02-18T12:38:24.438Z,18.15
2018-02-18T12:40:51.929Z,16.80
2018-02-18T12:43:19.795Z,16.43
2018-02-18T12:45:47.263Z,16.50
2018-02-18T12:48:15.529Z,17.53
2018-02-18T12:50:43.072Z,17.15
2018-02-18T12:53:10.575Z,18.10
2018-02-18T12:55:38.043Z,17.23
2018-02-18T12:58:05.535Z,17.00
2018-02-18T13:00:32.968Z,16.90
2018-02-18T13:03:00.489Z,17.03
2018-02-18T13:05:28.007Z,17.75
2018-02-18T13:07:55.497Z,16.53
2018-02-18T13:10:23.005Z,17.77
2018-02-18T13:12:50.488Z,14.20
2018-02-18T13:15:17.980Z,14.70
2018-02-18T13:17:45.764Z,13.90
2018-02-18T13:20:14.017Z,15.63
2018-02-18T13:22:41.566Z,14.70
2018-02-18T13:25:09.071Z,14.50
2018-02-18T13:27:36.491Z,13.07
2018-02-18T13:30:04.762Z,11.93
2018-02-18T13:32:32.293Z,14.25
2018-02-18T13:34:59.693Z,12.18
2018-02-18T13:37:28.053Z,12.50
2018-02-18T13:39:55.582Z,11.80
2018-02-18T13:42:23.084Z,12.85
2018-02-18T13:44:50.600Z,13.88
2018-02-18T13:47:18.127Z,12.27
2018-02-18T13:49:46.388Z,13.05
2018-02-18T13:52:13.861Z,13.38
2018-02-18T13:54:41.408Z,13.10
2018-02-18T13:57:08.936Z,12.52
2018-02-18T13:59:36.408Z,12.45
2018-02-18T14:02:04.825Z,12.13
2018-02-18T14:04:33.062Z,11.30
2018-02-18T14:07:00.632Z,13.47
2018-02-18T14:09:28.092Z,11.63
2018-02-18T14:11:55.568Z,10.70
2018-02-18T14:14:23.073Z,12.50
2018-02-18T14:16:50.593Z,11.20
2018-02-18T14:19:18.014Z,11.17
2018-02-18T14:21:45.534Z,12.30
2018-02-18T14:24:13.237Z,11.70
2018-02-18T14:26:41.474Z,12.37
2018-02-18T14:29:09.040Z,12.43
2018-02-18T14:31:36.518Z,12.17
2018-02-18T14:34:04.000Z,12.85
2018-02-18T14:36:31.445Z,10.83
2018-02-18T14:38:58.915Z,12.03
2018-02-18T14:41:38.013Z,11.77
2018-02-18T14:44:17.492Z,12.13
2018-02-18T14:46:57.434Z,11.10
2018-02-18T14:49:36.678Z,10.73
2018-02-18T14:52:16.871Z,9.90
2018-02-18T14:55:05.090Z,11.17
2018-02-18T14:57:32.662Z,12.07
2018-02-18T15:00:00.108Z,11.90
2018-02-18T15:02:27.595Z,11.52
2018-02-18T15:04:55.059Z,11.65
2018-02-18T15:07:22.540Z,12.43
2018-02-18T15:09:50.218Z,11.40
2018-02-18T15:12:17.643Z,12.07
2018-02-18T15:14:45.886Z,11.53
2018-02-18T15:17:13.358Z,12.85
2018-02-18T15:19:40.836Z,12.50
2018-02-18T15:22:08.288Z,11.60
2018-02-18T15:24:35.865Z,12.43
2018-02-18T15:27:03.315Z,12.82
2018-02-18T15:29:31.560Z,11.82
2018-02-18T15:31:59.009Z,12.95
2018-02-18T15:34:26.463Z,12.68
2018-02-18T15:36:53.936Z,12.60
2018-02-18T15:39:21.407Z,12.50
2018-02-18T15:41:49.678Z,12.57
2018-02-18T15:44:17.134Z,14.15
2018-02-18T15:46:44.608Z,11.27
2018-02-18T15:49:12.066Z,13.10
2018-02-18T15:51:39.540Z,12.15
2018-02-18T15:54:06.990Z,11.52
2018-02-18T15:56:34.480Z,12.37
2018-02-18T15:59:01.943Z,12.98
2018-02-18T16:01:29.442Z,12.27
2018-02-18T16:16:52.766Z,14.25
2018-02-18T16:19:20.243Z,12.50
2018-02-18T16:21:49.068Z,11.38
2018-02-18T16:24:16.512Z,13.45
2018-02-18T16:26:43.991Z,11.98
2018-02-18T16:29:15.432Z,11.32
2018-02-18T16:31:43.670Z,12.02
2018-02-18T16:34:11.137Z,12.52
2018-02-18T16:36:38.617Z,11.52
2018-02-18T16:39:06.138Z,12.80
2018-02-18T16:41:34.358Z,12.63
2018-02-18T16:44:01.896Z,12.37
2018-02-18T16:46:30.290Z,12.02
2018-02-18T16:48:57.763Z,12.75
2018-02-18T16:51:25.217Z,11.50
2018-02-18T17:03:32.719Z,14.25
2018-02-18T17:06:00.967Z,11.82
2018-02-18T17:08:28.425Z,11.38
2018-02-18T17:10:56.728Z,12.77
2018-02-18T17:13:24.195Z,11.73
2018-02-18T17:15:51.688Z,14.43
2018-02-18T17:18:19.206Z,13.13
2018-02-18T17:20:47.448Z,12.50
2018-02-18T17:23:14.978Z,12.55
2018-02-18T17:25:43.217Z,11.18
2018-02-18T17:28:11.254Z,11.50
2018-02-18T17:30:39.497Z,14.00
2018-02-18T17:33:06.972Z,14.07
2018-02-18T17:35:34.433Z,14.00
2018-02-18T17:38:01.925Z,12.50
2018-02-18T17:40:29.381Z,13.50
2018-02-18T17:42:56.854Z,14.70
2018-02-18T17:45:24.321Z,15.13
2018-02-18T17:47:51.852Z,14.10
2018-02-18T17:50:19.356Z,14.90
2018-02-18T17:52:47.646Z,13.55
2018-02-18T17:55:16.298Z,15.45
2018-02-18T17:57:44.512Z,15.07
2018-02-18T18:00:11.994Z,14.93
2018-02-18T18:02:39.461Z,14.73
2018-02-18T18:05:06.988Z,15.65
2018-02-18T18:07:34.433Z,15.90
2018-02-18T18:10:02.664Z,14.20
2018-02-18T18:12:30.117Z,15.10
2018-02-18T18:14:57.605Z,15.25
2018-02-18T18:17:25.080Z,16.10
2018-02-18T18:19:52.568Z,15.07
2018-02-18T18:22:20.049Z,16.20
2018-02-18T18:24:47.500Z,16.12
2018-02-18T18:27:15.027Z,14.43
2018-02-18T18:29:42.537Z,15.93
2018-02-18T18:32:10.905Z,15.50
2018-02-18T18:34:38.403Z,16.92
2018-02-18T18:37:05.880Z,18.48
2018-02-18T18:39:34.108Z,15.25
2018-02-18T18:42:01.579Z,15.88
2018-02-18T18:44:29.142Z,17.65
2018-02-18T18:46:56.616Z,15.10
2018-02-18T18:49:25.003Z,17.33
2018-02-18T18:51:53.301Z,18.65
2018-02-18T18:54:21.528Z,17.30
2018-02-18T18:56:48.992Z,16.60
2018-02-18T18:59:16.486Z,16.42
2018-02-18T19:01:46.029Z,16.65
2018-02-18T19:04:13.549Z,17.15
2018-02-18T19:06:41.077Z,15.20
2018-02-18T19:09:08.814Z,16.50
2018-02-18T19:11:36.329Z,14.65
2018-02-18T19:14:03.834Z,14.45
2018-02-18T19:16:31.377Z,15.10
2018-02-18T19:18:58.834Z,13.52
2018-02-18T19:21:26.296Z,16.42
2018-02-18T19:23:54.114Z,14.23
2018-02-18T19:26:22.437Z,17.00
2018-02-18T19:29:18.375Z,14.52
2018-02-18T19:31:46.637Z,16.05
2018-02-18T19:34:22.310Z,16.10
2018-02-18T19:36:49.864Z,14.65
2018-02-18T19:39:17.343Z,16.30
2018-02-18T19:41:44.834Z,16.42
2018-02-18T19:44:12.292Z,16.05
2018-02-18T19:46:39.799Z,16.08
2018-02-18T19:49:07.362Z,16.05
2018-02-18T19:51:34.885Z,18.00
2018-02-18T19:54:02.401Z,16.10
2018-02-18T19:56:33.757Z,17.08
2018-02-18T19:59:01.237Z,15.43
2018-02-18T20:01:28.745Z,16.50
2018-02-18T20:03:57.580Z,17.08
2018-02-18T20:06:25.066Z,16.40
2018-02-18T20:08:58.515Z,17.15
2018-02-18T20:11:26.067Z,16.92
2018-02-18T20:13:53.541Z,16.58
2018-02-18T20:16:21.105Z,15.70
2018-02-18T20:18:48.617Z,17.30
2018-02-18T20:21:17.024Z,17.60
2018-02-18T20:23:45.481Z,17.10
2018-02-18T20:26:12.957Z,16.87
2018-02-18T20:38:53.925Z,16.42
2018-02-18T20:41:21.539Z,17.00
2018-02-18T20:43:49.069Z,16.55
2018-02-18T20:46:17.410Z,17.48
2018-02-18T20:48:45.546Z,17.12
2018-02-18T20:51:13.777Z,17.02
2018-02-18T20:53:41.552Z,17.17
2018-02-18T20:56:09.099Z,17.98
2018-02-18T20:58:36.615Z,16.83
2018-02-18T21:01:04.091Z,15.65
2018-02-18T21:03:32.347Z,16.83
2018-02-18T21:05:59.805Z,16.92
2018-02-18T21:21:17.300Z,16.73
2018-02-18T21:23:45.594Z,17.30
2018-02-18T21:26:13.151Z,16.73
2018-02-18T21:28:40.604Z,16.10
2018-02-18T21:31:08.137Z,17.87
2018-02-18T21:33:35.643Z,19.83
2018-02-18T21:36:03.124Z,18.12
2018-02-18T21:38:42.713Z,17.67
2018-02-18T21:41:10.221Z,16.62
2018-02-18T21:43:37.775Z,16.05
2018-02-18T21:46:05.245Z,16.58
2018-02-18T21:48:32.996Z,16.65
2018-02-18T21:51:00.461Z,18.50
2018-02-18T21:53:27.949Z,17.87
2018-02-18T21:55:55.421Z,20.70
2018-02-18T21:58:22.924Z,17.87
2018-02-18T22:00:58.324Z,17.35
2018-02-18T22:03:30.470Z,18.05
2018-02-18T22:05:57.968Z,19.80
2018-02-18T22:08:25.465Z,18.98
2018-02-18T22:10:52.915Z,19.27
2018-02-18T22:13:20.436Z,18.98
2018-02-18T22:15:48.730Z,20.10
2018-02-18T22:18:16.201Z,18.20
2018-02-18T22:20:43.732Z,18.92
2018-02-18T22:23:11.205Z,20.62
2018-02-18T22:25:38.746Z,18.67
2018-02-18T22:28:06.173Z,19.15
2018-02-18T22:30:33.736Z,19.42
2018-02-18T22:33:01.195Z,17.83
2018-02-18T22:35:28.664Z,17.77
2018-02-18T22:37:56.142Z,18.30
2018-02-18T22:40:23.768Z,17.75
2018-02-18T22:42:52.284Z,17.77
2018-02-18T22:45:19.744Z,18.08
2018-02-18T22:47:47.996Z,18.12
2018-02-18T22:50:21.279Z,18.20
2018-02-18T22:52:48.793Z,19.12
2018-02-18T22:55:16.713Z,18.20
2018-02-18T22:57:44.196Z,18.15
2018-02-18T23:09:51.690Z,17.15
2018-02-18T23:12:19.192Z,17.10
2018-02-18T23:24:26.704Z,17.92
2018-02-18T23:39:44.197Z,16.42
2018-02-18T23:51:51.693Z,14.77
2018-02-18T23:54:20.267Z,14.30
2018-02-18T23:56:47.719Z,14.95
2018-02-18T23:59:15.404Z,15.77
